Disautel, Washington
Current Conditions -  °F | °C
As of 12:53 AM on Sunday 26 Oct 2014 (Local Time) from KOMK Reporting Station
Clear Clear  
Wind Chill: 54°   Ceiling: Unl
Heat Index: 54°   Visibility: 10mi
Dew Point: 43°   Wind: 12mph
Humidity: 66%   Direction: 150°SSE
Pressure: 29.51"   Gusts: NA
Location:  48.4274°N, 119.524°W
Report Text: KOMK 260753Z AUTO 15010KT 10SM CLR 12/06 A2951 RMK AO2 RAB18E28 SLP995 P0000 T01220061 401280061
Loading
Personal Weather Stations






























Interactive Weather Map
Tropical Storm Tracking
New forecast layout! Learn more

10-Day Weather Forecast

Advertisements
Track Severe Weather on mobile